Time;durP1;ratioP1;P1;durP2;ratioP2;P2;SDS_P1;SDS_P2;PMS_P1;PMS_P2;Temp;Humidity;BMP_temperature;BMP_pressure;BME280_temperature;BME280_humidity;BME280_pressure;Samples;Min_cycle;Max_cycle;Signal;HPM_P1;HPM_P2
2023/07/29 00:00:43;;;;;;;6.33;3.90;;;;;;;17.12;100.00;100632.44;4934891;29;20034;-92
2023/07/29 00:03:09;;;;;;;4.38;3.97;;;;;;;17.13;100.00;100620.53;4934978;29;20389;-91
2023/07/29 00:05:36;;;;;;;6.93;3.92;;;;;;;17.20;100.00;100599.22;4935046;29;20028;-92
2023/07/29 00:08:01;;;;;;;5.40;4.37;;;;;;;17.28;100.00;100590.38;4934832;29;20379;-92
2023/07/29 00:10:27;;;;;;;8.83;3.87;;;;;;;17.39;100.00;100607.94;4935410;29;20283;-93
2023/07/29 00:12:52;;;;;;;6.93;3.87;;;;;;;17.48;100.00;100605.28;4934909;29;20400;-91
2023/07/29 00:15:17;;;;;;;6.20;4.07;;;;;;;17.47;100.00;100606.38;4935325;29;20102;-91
2023/07/29 00:17:43;;;;;;;6.03;4.30;;;;;;;17.56;100.00;100611.84;4938374;29;20103;-92
2023/07/29 00:20:08;;;;;;;8.25;4.38;;;;;;;17.58;100.00;100614.28;4953466;29;20055;-92
2023/07/29 00:22:34;;;;;;;6.43;4.13;;;;;;;17.50;100.00;100596.88;4933729;28;20036;-92
2023/07/29 00:24:59;;;;;;;5.30;4.13;;;;;;;17.58;100.00;100611.56;4947380;29;20075;-92
2023/07/29 00:27:25;;;;;;;5.38;4.15;;;;;;;17.62;100.00;100615.25;4945421;29;20067;-92
2023/07/29 00:29:51;;;;;;;6.93;4.40;;;;;;;17.51;100.00;100595.75;4934860;29;20483;-92
2023/07/29 00:32:16;;;;;;;5.13;4.40;;;;;;;17.56;100.00;100603.72;4934284;29;20024;-92
2023/07/29 00:34:41;;;;;;;7.90;4.50;;;;;;;17.55;100.00;100610.25;4934627;29;20345;-92
2023/07/29 00:37:07;;;;;;;5.53;4.23;;;;;;;17.56;100.00;100612.66;4934379;29;20066;-92
2023/07/29 00:39:32;;;;;;;6.50;5.70;;;;;;;17.60;100.00;100612.06;4934731;29;20090;-93
2023/07/29 00:41:58;;;;;;;9.20;5.77;;;;;;;17.51;100.00;100598.47;4934066;29;20711;-92
2023/07/29 00:44:24;;;;;;;9.40;6.90;;;;;;;17.49;100.00;100600.69;4934674;29;20035;-92
2023/07/29 00:46:53;;;;;;;9.13;7.30;;;;;;;17.25;100.00;100578.22;4934185;29;20024;-91
2023/07/29 00:49:20;;;;;;;9.43;7.50;;;;;;;17.24;100.00;100586.66;4934159;29;20121;-92
2023/07/29 00:51:46;;;;;;;9.23;7.50;;;;;;;17.06;100.00;100575.72;4933958;29;20394;-93
2023/07/29 00:54:12;;;;;;;10.27;7.70;;;;;;;17.09;100.00;100591.34;4934521;29;20036;-92
2023/07/29 00:56:37;;;;;;;8.70;7.80;;;;;;;17.02;100.00;100582.06;4933601;29;20024;-92
2023/07/29 00:59:04;;;;;;;9.80;7.30;;;;;;;17.01;100.00;100580.47;4934390;29;20037;-92
2023/07/29 01:01:30;;;;;;;12.50;7.73;;;;;;;16.93;100.00;100576.56;4934025;29;20802;-92
2023/07/29 01:03:56;;;;;;;11.80;8.02;;;;;;;16.93;100.00;100585.47;4933315;29;20147;-92
2023/07/29 01:06:43;;;;;;;9.55;8.43;;;;;;;16.93;100.00;100588.16;4933858;29;20107;-93
2023/07/29 01:09:23;;;;;;;9.32;7.95;;;;;;;16.94;100.00;100594.41;4933750;29;20118;-92
2023/07/29 01:12:01;;;;;;;9.07;7.57;;;;;;;16.87;100.00;100578.59;4932293;29;20407;-92
2023/07/29 01:14:38;;;;;;;9.52;8.13;;;;;;;16.93;100.00;100596.28;4933739;29;20031;-91
2023/07/29 01:17:08;;;;;;;9.10;7.63;;;;;;;16.96;100.00;100589.50;4934419;29;20091;-91
2023/07/29 01:19:48;;;;;;;9.85;7.63;;;;;;;16.98;100.00;100591.91;4933921;29;20380;-92
2023/07/29 01:22:13;;;;;;;9.30;7.10;;;;;;;16.89;100.00;100570.16;4932958;29;20115;-91
2023/07/29 01:24:39;;;;;;;7.80;7.03;;;;;;;16.95;100.00;100599.53;4933379;29;20390;-92
2023/07/29 01:27:05;;;;;;;7.68;6.55;;;;;;;16.90;100.00;100588.78;4933138;29;20369;-92
2023/07/29 01:29:31;;;;;;;7.87;6.20;;;;;;;16.87;100.00;100594.00;4933452;29;20039;-92
2023/07/29 01:32:03;;;;;;;8.02;6.35;;;;;;;16.76;100.00;100580.72;4933478;29;20023;-92
2023/07/29 01:34:35;;;;;;;8.80;6.13;;;;;;;16.72;100.00;100584.31;4933774;29;20050;-92
2023/07/29 01:37:02;;;;;;;8.63;5.95;;;;;;;16.67;100.00;100576.34;4942010;29;20024;-92
2023/07/29 01:39:31;;;;;;;8.13;5.60;;;;;;;16.75;100.00;100594.53;4956240;29;20022;-93
2023/07/29 01:41:57;;;;;;;8.70;5.78;;;;;;;16.69;100.00;100593.88;4934310;29;20050;-92
2023/07/29 01:44:22;;;;;;;8.93;5.70;;;;;;;16.59;100.00;100583.28;4943923;29;20020;-93
2023/07/29 01:46:49;;;;;;;6.93;5.57;;;;;;;16.70;100.00;100600.09;4948426;29;20042;-93
2023/07/29 01:49:15;;;;;;;8.75;5.78;;;;;;;16.66;100.00;100597.16;4933699;29;20038;-93
2023/07/29 01:51:40;;;;;;;11.07;5.87;;;;;;;16.57;100.00;100582.78;4933278;29;20095;-93
2023/07/29 01:54:05;;;;;;;8.32;5.95;;;;;;;16.65;100.00;100590.97;4933414;29;20106;-93
2023/07/29 01:56:31;;;;;;;8.70;6.03;;;;;;;16.62;100.00;100583.47;4933661;29;20031;-94
2023/07/29 01:58:56;;;;;;;9.67;6.60;;;;;;;16.59;100.00;100597.59;4933195;29;20051;-92
2023/07/29 02:01:22;;;;;;;6.87;5.87;;;;;;;16.50;100.00;100599.44;4933859;29;20035;-92
2023/07/29 02:03:48;;;;;;;7.80;6.05;;;;;;;16.49;100.00;100595.13;4932680;29;20067;-92
2023/07/29 02:06:13;;;;;;;10.80;5.53;;;;;;;16.58;100.00;100601.41;4932140;29;20056;-92
2023/07/29 02:08:40;;;;;;;9.70;5.57;;;;;;;16.59;100.00;100597.59;4932248;29;20339;-92
2023/07/29 02:11:06;;;;;;;7.70;5.30;;;;;;;16.66;100.00;100610.69;4932218;28;20042;-93
2023/07/29 02:13:31;;;;;;;7.50;5.37;;;;;;;16.59;100.00;100589.47;4933628;29;20031;-93
2023/07/29 02:15:56;;;;;;;7.73;5.40;;;;;;;16.61;100.00;100597.31;4936877;29;20043;-92
2023/07/29 02:18:22;;;;;;;6.17;4.90;;;;;;;16.60;100.00;100588.38;4936643;29;20528;-92
2023/07/29 02:20:49;;;;;;;7.87;5.10;;;;;;;16.55;100.00;100574.94;4936870;29;20145;-92
2023/07/29 02:23:16;;;;;;;8.00;4.95;;;;;;;16.55;100.00;100580.38;4936591;29;20062;-92
2023/07/29 02:25:41;;;;;;;6.07;5.03;;;;;;;16.48;100.00;100586.19;4935581;28;20032;-92
2023/07/29 02:28:06;;;;;;;7.33;5.13;;;;;;;16.33;100.00;100575.72;4937064;29;20171;-92
2023/07/29 02:30:31;;;;;;;6.80;4.40;;;;;;;16.34;100.00;100574.59;4937384;29;20443;-92
2023/07/29 02:32:57;;;;;;;7.70;4.32;;;;;;;16.29;100.00;100570.13;4937181;29;20027;-92
2023/07/29 02:35:22;;;;;;;5.77;4.80;;;;;;;16.34;100.00;100575.38;4937058;29;20024;-93
2023/07/29 02:37:47;;;;;;;6.47;4.20;;;;;;;16.42;100.00;100579.31;4936550;29;20059;-92
2023/07/29 02:40:13;;;;;;;5.67;4.20;;;;;;;16.42;100.00;100575.78;4936911;29;20028;-92
2023/07/29 02:42:38;;;;;;;7.03;4.07;;;;;;;16.38;100.00;100575.59;4936979;29;20024;-92
2023/07/29 02:45:04;;;;;;;3.73;3.43;;;;;;;16.31;100.00;100565.22;4937410;29;20035;-92
2023/07/29 02:47:29;;;;;;;5.15;3.80;;;;;;;16.43;100.00;100585.50;4936190;29;20024;-92
2023/07/29 02:49:55;;;;;;;4.57;3.57;;;;;;;16.28;100.00;100565.81;4936302;29;20124;-92
2023/07/29 02:52:20;;;;;;;3.97;3.00;;;;;;;16.28;100.00;100573.91;4936017;29;20031;-93
2023/07/29 02:54:45;;;;;;;3.27;2.80;;;;;;;16.21;100.00;100568.09;4936246;29;20629;-92
2023/07/29 02:57:11;;;;;;;5.27;2.77;;;;;;;16.24;100.00;100570.22;4940982;29;20022;-92
2023/07/29 02:59:36;;;;;;;3.23;2.90;;;;;;;16.18;100.00;100574.13;4948305;29;20024;-93
2023/07/29 03:02:02;;;;;;;4.23;2.73;;;;;;;16.18;100.00;100577.63;4936231;29;20047;-92
2023/07/29 03:04:27;;;;;;;4.32;2.70;;;;;;;16.09;100.00;100568.63;4948662;29;20028;-92
2023/07/29 03:06:52;;;;;;;4.43;2.70;;;;;;;16.07;100.00;100551.91;4943914;29;20395;-93
2023/07/29 03:09:18;;;;;;;7.00;2.93;;;;;;;16.13;100.00;100574.25;4936085;29;20373;-92
2023/07/29 03:11:43;;;;;;;4.25;3.05;;;;;;;16.12;100.00;100578.81;4935313;29;20035;-93
2023/07/29 03:14:08;;;;;;;5.40;2.80;;;;;;;16.07;100.00;100568.09;4936384;29;20442;-92
2023/07/29 03:16:34;;;;;;;6.83;2.97;;;;;;;16.02;100.00;100563.63;4935413;29;20035;-92
2023/07/29 03:19:00;;;;;;;4.13;2.87;;;;;;;16.04;100.00;100556.00;4936082;29;20052;-92
2023/07/29 03:21:25;;;;;;;4.40;2.95;;;;;;;15.90;100.00;100545.19;4935838;29;20241;-92
2023/07/29 03:23:51;;;;;;;4.13;3.20;;;;;;;16.07;100.00;100578.13;4935815;29;20032;-91
2023/07/29 03:26:17;;;;;;;3.70;3.20;;;;;;;15.98;100.00;100583.44;4934692;29;20046;-93
2023/07/29 03:28:43;;;;;;;8.40;3.90;;;;;;;15.95;100.00;100581.34;4935866;29;20023;-93
2023/07/29 03:31:09;;;;;;;5.03;3.78;;;;;;;15.84;100.00;100578.81;4935794;29;20256;-92
2023/07/29 03:33:34;;;;;;;4.60;4.03;;;;;;;15.92;100.00;100587.34;4935775;29;20103;-93
2023/07/29 03:35:59;;;;;;;7.63;3.63;;;;;;;15.83;100.00;100569.09;4934888;29;20019;-92
2023/07/29 03:38:25;;;;;;;6.73;3.83;;;;;;;15.78;100.00;100569.19;4935489;29;20038;-92
2023/07/29 03:40:50;;;;;;;7.73;3.80;;;;;;;15.84;100.00;100584.22;4935472;29;20122;-92
2023/07/29 03:43:16;;;;;;;4.40;3.90;;;;;;;15.75;100.00;100575.19;4934388;29;20024;-92
2023/07/29 03:45:41;;;;;;;6.83;3.90;;;;;;;15.70;100.00;100564.50;4935254;29;20488;-93
2023/07/29 03:48:07;;;;;;;3.97;3.60;;;;;;;15.77;100.00;100583.78;4936019;29;20027;-92
2023/07/29 03:50:35;;;;;;;5.03;3.53;;;;;;;15.73;100.00;100578.19;4933954;29;20020;-93
2023/07/29 03:53:00;;;;;;;6.60;3.63;;;;;;;15.71;100.00;100579.56;4936200;29;20098;-92
2023/07/29 03:55:25;;;;;;;5.77;3.70;;;;;;;15.65;100.00;100575.38;4935544;29;20732;-93
2023/07/29 03:57:51;;;;;;;5.93;3.50;;;;;;;15.60;100.00;100565.47;4935111;29;20051;-92
2023/07/29 04:00:16;;;;;;;10.40;4.07;;;;;;;15.62;100.00;100565.19;4935250;29;20055;-92
2023/07/29 04:02:42;;;;;;;6.67;3.80;;;;;;;15.55;100.00;100549.38;4933962;29;20028;-92
2023/07/29 04:05:08;;;;;;;4.32;3.92;;;;;;;15.44;100.00;100524.44;4935286;29;20415;-92
2023/07/29 04:07:34;;;;;;;5.20;3.80;;;;;;;15.45;100.00;100534.16;4935116;29;20028;-92
2023/07/29 04:10:00;;;;;;;6.25;4.15;;;;;;;15.42;100.00;100535.56;4935920;29;20039;-92
2023/07/29 04:12:26;;;;;;;6.73;3.73;;;;;;;15.42;100.00;100538.25;4943817;29;20400;-93
2023/07/29 04:14:52;;;;;;;5.03;3.93;;;;;;;15.48;100.00;100540.84;4941770;29;20283;-92
2023/07/29 04:17:17;;;;;;;5.85;3.80;;;;;;;15.45;100.00;100523.34;4946420;29;20032;-92
2023/07/29 04:19:42;;;;;;;3.90;3.50;;;;;;;15.50;100.00;100535.94;4950121;29;20055;-91
2023/07/29 04:22:07;;;;;;;5.20;4.00;;;;;;;15.52;100.00;100545.34;4941220;29;20066;-92
2023/07/29 04:24:33;;;;;;;6.23;4.03;;;;;;;15.52;100.00;100556.16;4953997;29;20028;-93
2023/07/29 04:26:58;;;;;;;6.90;3.90;;;;;;;15.55;100.00;100569.06;4939347;29;20031;-91
2023/07/29 04:29:23;;;;;;;8.93;5.37;;;;;;;15.57;100.00;100572.25;4935347;29;20043;-92
2023/07/29 04:31:50;;;;;;;8.25;5.10;;;;;;;15.52;100.00;100577.75;4934862;29;20024;-93
2023/07/29 04:34:15;;;;;;;6.13;4.30;;;;;;;15.58;100.00;100587.38;4935049;29;20024;-92
2023/07/29 04:36:41;;;;;;;4.97;3.97;;;;;;;15.63;100.00;100583.78;4934139;29;20391;-92
2023/07/29 04:39:06;;;;;;;3.77;3.43;;;;;;;15.63;100.00;100572.19;4935348;29;20551;-94
2023/07/29 04:41:31;;;;;;;3.93;3.30;;;;;;;15.79;100.00;100581.59;4935195;29;20475;-93
2023/07/29 04:43:57;;;;;;;6.40;3.27;;;;;;;15.79;100.00;100576.19;4935051;29;20111;-93
2023/07/29 04:46:22;;;;;;;6.83;3.27;;;;;;;15.75;100.00;100570.59;4934752;29;20027;-93
2023/07/29 04:48:47;;;;;;;3.60;3.20;;;;;;;15.89;100.00;100592.22;4933090;29;20026;-93
2023/07/29 04:51:13;;;;;;;4.20;3.73;;;;;;;15.98;100.00;100603.13;4935468;29;20283;-93
2023/07/29 04:53:38;;;;;;;5.63;2.90;;;;;;;16.09;100.00;100600.25;4934384;29;20558;-93
2023/07/29 04:56:03;;;;;;;3.80;3.50;;;;;;;16.11;100.00;100595.34;4934757;29;20539;-92
2023/07/29 04:58:29;;;;;;;3.93;3.37;;;;;;;16.09;100.00;100589.44;4934272;29;20028;-93
2023/07/29 05:00:55;;;;;;;6.30;3.20;;;;;;;16.15;100.00;100599.06;4934714;29;20830;-93
2023/07/29 05:03:21;;;;;;;3.67;3.25;;;;;;;16.08;100.00;100583.22;4934087;29;20063;-94
2023/07/29 05:05:46;;;;;;;5.00;3.03;;;;;;;16.31;100.00;100607.66;4934143;29;20357;-93
2023/07/29 05:08:11;;;;;;;5.23;3.00;;;;;;;16.33;100.00;100600.03;4933217;29;20031;-92
2023/07/29 05:10:37;;;;;;;3.35;2.60;;;;;;;16.27;100.00;100601.22;4936710;29;20024;-93
2023/07/29 05:13:02;;;;;;;2.97;2.47;;;;;;;16.37;100.00;100617.25;4935181;29;20024;-92
2023/07/29 05:15:27;;;;;;;5.03;2.90;;;;;;;16.43;100.00;100632.25;4935065;29;20436;-92
2023/07/29 05:17:53;;;;;;;5.57;2.67;;;;;;;16.44;100.00;100624.97;4933615;29;20035;-92
2023/07/29 05:20:18;;;;;;;3.17;2.53;;;;;;;16.45;100.00;100624.66;4934509;29;20044;-92
2023/07/29 05:22:43;;;;;;;5.63;2.40;;;;;;;16.49;100.00;100628.34;4934155;29;20036;-93
2023/07/29 05:25:09;;;;;;;4.03;2.50;;;;;;;16.47;100.00;100614.34;4934759;29;20476;-93
2023/07/29 05:27:34;;;;;;;5.90;2.70;;;;;;;16.65;100.00;100638.84;4934776;29;20023;-91
2023/07/29 05:30:00;;;;;;;2.53;2.30;;;;;;;16.60;100.00;100617.34;4934425;29;20031;-92
2023/07/29 05:32:25;;;;;;;5.63;2.60;;;;;;;16.65;100.00;100617.22;4934160;29;20079;-93
2023/07/29 05:34:50;;;;;;;3.17;2.47;;;;;;;16.67;100.00;100631.22;4934210;29;20155;-92
2023/07/29 05:37:16;;;;;;;2.50;2.20;;;;;;;16.59;100.00;100602.22;4946363;29;20228;-92
2023/07/29 05:39:41;;;;;;;4.00;2.80;;;;;;;16.67;100.00;100623.13;4948403;29;20024;-92
2023/07/29 05:42:07;;;;;;;5.70;2.60;;;;;;;16.61;100.00;100613.53;4934688;29;20288;-92
2023/07/29 05:44:33;;;;;;;5.43;2.88;;;;;;;16.75;100.00;100635.13;4951289;29;20024;-93
2023/07/29 05:46:59;;;;;;;2.60;2.40;;;;;;;16.84;100.00;100637.91;4939600;29;20042;-92
2023/07/29 05:49:25;;;;;;;4.43;2.58;;;;;;;17.02;100.00;100628.06;4938441;29;20099;-93
2023/07/29 05:51:52;;;;;;;4.63;2.60;;;;;;;17.47;100.00;100625.34;4940808;29;20055;-92
2023/07/29 05:54:18;;;;;;;3.15;2.50;;;;;;;18.20;100.00;100623.47;4938879;29;20031;-93
2023/07/29 05:56:43;;;;;;;5.28;2.40;;;;;;;18.72;100.00;100623.56;4937285;29;20027;-92
2023/07/29 05:59:09;;;;;;;4.73;2.50;;;;;;;19.11;100.00;100629.22;4936574;29;20031;-91
2023/07/29 06:01:34;;;;;;;3.27;2.30;;;;;;;19.22;100.00;100611.47;4937240;29;20396;-92
2023/07/29 06:04:00;;;;;;;3.42;2.38;;;;;;;19.41;100.00;100634.75;4936020;29;20400;-92
2023/07/29 06:06:26;;;;;;;4.50;2.20;;;;;;;19.38;100.00;100632.69;4937192;29;20023;-93
2023/07/29 06:08:51;;;;;;;2.42;1.95;;;;;;;19.49;100.00;100625.81;4936394;29;20050;-91
2023/07/29 06:11:16;;;;;;;3.23;2.50;;;;;;;19.60;100.00;100634.41;4936983;29;20023;-91
2023/07/29 06:13:42;;;;;;;3.73;2.17;;;;;;;19.56;100.00;100628.03;4937308;29;20496;-92
2023/07/29 06:16:07;;;;;;;3.50;2.30;;;;;;;19.67;100.00;100634.69;4937130;29;20028;-92
2023/07/29 06:18:32;;;;;;;3.28;2.30;;;;;;;19.59;100.00;100632.81;4937364;29;20059;-93
2023/07/29 06:20:58;;;;;;;2.40;2.20;;;;;;;19.62;100.00;100636.81;4936933;29;20031;-92
2023/07/29 06:23:23;;;;;;;5.47;2.33;;;;;;;19.87;100.00;100640.59;4935867;29;20020;-92
2023/07/29 06:25:48;;;;;;;3.23;2.07;;;;;;;19.93;100.00;100609.38;4936755;29;20043;-91
2023/07/29 06:28:14;;;;;;;2.50;1.77;;;;;;;20.18;100.00;100628.59;4937752;29;20484;-92
2023/07/29 06:30:39;;;;;;;2.92;2.22;;;;;;;20.12;100.00;100630.72;4937504;29;20039;-91
2023/07/29 06:33:05;;;;;;;2.53;2.30;;;;;;;19.91;100.00;100627.94;4944260;29;20030;-93
2023/07/29 06:35:30;;;;;;;3.10;2.60;;;;;;;19.70;100.00;100633.28;4935650;29;20735;-92
2023/07/29 06:37:55;;;;;;;4.23;2.30;;;;;;;19.41;100.00;100621.19;4936832;29;20070;-91
2023/07/29 06:40:21;;;;;;;2.60;2.13;;;;;;;19.41;100.00;100629.34;4938428;29;20229;-91
2023/07/29 06:42:46;;;;;;;3.55;2.45;;;;;;;19.34;100.00;100632.53;4936911;29;20460;-92
2023/07/29 06:45:12;;;;;;;3.63;2.30;;;;;;;19.27;100.00;100618.63;4936728;29;20034;-92
2023/07/29 06:47:37;;;;;;;3.00;2.30;;;;;;;19.41;100.00;100623.91;4936406;29;20082;-92
2023/07/29 06:50:03;;;;;;;2.90;2.40;;;;;;;19.49;100.00;100616.84;4935383;29;20023;-93
2023/07/29 06:52:28;;;;;;;3.53;2.20;;;;;;;19.39;100.00;100611.78;4937867;29;20174;-92
2023/07/29 06:54:54;;;;;;;5.00;2.40;;;;;;;19.59;100.00;100637.44;4937286;29;20055;-92
2023/07/29 06:57:19;;;;;;;3.40;2.27;;;;;;;19.63;100.00;100647.34;4947155;29;20079;-92
2023/07/29 06:59:44;;;;;;;4.10;2.47;;;;;;;19.68;100.00;100646.38;4949216;29;20032;-92
2023/07/29 07:02:10;;;;;;;2.93;2.00;;;;;;;19.90;100.00;100648.09;4943392;29;20058;-92
2023/07/29 07:04:35;;;;;;;2.42;1.85;;;;;;;20.15;100.00;100652.94;4959290;29;20019;-92
2023/07/29 07:07:01;;;;;;;2.00;1.80;;;;;;;20.06;100.00;100640.19;4942681;29;20070;-92
2023/07/29 07:09:26;;;;;;;2.77;2.20;;;;;;;20.24;100.00;100630.03;4936514;29;20086;-92
2023/07/29 07:11:52;;;;;;;3.53;1.87;;;;;;;20.78;100.00;100633.25;4937330;29;20028;-92
2023/07/29 07:14:17;;;;;;;2.53;2.03;;;;;;;21.14;99.04;100643.50;4936141;29;20028;-92
2023/07/29 07:16:43;;;;;;;2.03;1.80;;;;;;;21.05;100.00;100640.06;4936342;29;20411;-92
2023/07/29 07:19:08;;;;;;;4.78;1.90;;;;;;;21.11;100.00;100643.38;4936859;29;20046;-92
2023/07/29 07:21:34;;;;;;;2.90;1.90;;;;;;;21.09;100.00;100623.84;4934845;28;20071;-91
2023/07/29 07:23:59;;;;;;;3.25;1.88;;;;;;;21.39;99.54;100642.78;4935203;29;20024;-92
2023/07/29 07:26:25;;;;;;;1.83;1.67;;;;;;;21.50;97.32;100652.16;4936541;29;20031;-92
2023/07/29 07:28:51;;;;;;;2.47;1.80;;;;;;;21.47;98.41;100656.34;4935046;29;20497;-93
2023/07/29 07:31:17;;;;;;;2.65;2.17;;;;;;;21.43;95.68;100663.63;4936796;29;20020;-93
2023/07/29 07:33:43;;;;;;;2.35;2.03;;;;;;;21.16;96.61;100630.34;4936460;29;20022;-93
2023/07/29 07:36:08;;;;;;;3.47;1.97;;;;;;;21.70;97.76;100663.38;4934241;28;20476;-93
2023/07/29 07:38:33;;;;;;;2.60;1.90;;;;;;;21.99;94.32;100653.41;4937216;29;20027;-92
2023/07/29 07:40:59;;;;;;;2.77;1.73;;;;;;;22.02;93.42;100655.44;4944250;29;20074;-92
2023/07/29 07:43:24;;;;;;;4.07;2.30;;;;;;;21.98;90.84;100665.44;4936952;29;20030;-94
2023/07/29 07:45:49;;;;;;;3.57;2.10;;;;;;;21.89;93.75;100657.38;4936050;29;20028;-93
2023/07/29 07:48:16;;;;;;;2.40;2.20;;;;;;;22.04;91.48;100669.56;4936032;29;20387;-92
2023/07/29 07:50:42;;;;;;;3.73;2.03;;;;;;;22.23;93.50;100674.44;4935944;29;20280;-92
2023/07/29 07:53:08;;;;;;;3.17;2.30;;;;;;;22.22;89.50;100657.28;4936337;29;20023;-92
2023/07/29 07:55:33;;;;;;;2.15;1.95;;;;;;;22.31;90.12;100661.81;4935887;29;20027;-92
2023/07/29 07:57:58;;;;;;;7.63;1.90;;;;;;;22.50;91.08;100666.72;4935907;29;20028;-93
2023/07/29 08:00:24;;;;;;;4.70;2.20;;;;;;;22.83;87.52;100691.13;4936443;29;20435;-92
2023/07/29 08:02:49;;;;;;;2.03;1.90;;;;;;;23.15;87.36;100687.72;4934406;29;20035;-93
2023/07/29 08:05:15;;;;;;;3.13;2.10;;;;;;;23.23;82.08;100666.88;4936734;29;20067;-93
2023/07/29 08:07:40;;;;;;;2.78;2.00;;;;;;;23.36;82.47;100673.09;4936245;29;20061;-93
2023/07/29 08:10:06;;;;;;;3.77;1.67;;;;;;;23.38;82.77;100679.00;4936346;29;20039;-93
2023/07/29 08:12:32;;;;;;;2.20;1.90;;;;;;;22.98;82.40;100642.38;4936508;29;20019;-93
2023/07/29 08:14:58;;;;;;;2.00;1.80;;;;;;;23.25;84.66;100672.81;4936316;29;20031;-93
2023/07/29 08:17:23;;;;;;;3.35;1.73;;;;;;;23.11;81.35;100634.91;4947201;29;20019;-92
2023/07/29 08:19:48;;;;;;;4.97;1.90;;;;;;;23.44;81.02;100683.09;4949100;29;20047;-93
2023/07/29 08:22:14;;;;;;;1.80;1.70;;;;;;;23.23;80.19;100658.69;4938297;29;20494;-93
2023/07/29 08:24:39;;;;;;;3.35;1.67;;;;;;;23.36;81.48;100673.91;4953634;29;20047;-93
2023/07/29 08:27:05;;;;;;;1.70;1.37;;;;;;;23.01;79.67;100658.06;4941064;29;20390;-92
2023/07/29 08:29:30;;;;;;;2.70;1.60;;;;;;;22.82;81.90;100684.06;4935276;29;20032;-93
2023/07/29 08:31:56;;;;;;;1.70;1.60;;;;;;;22.57;83.28;100690.72;4935209;29;20275;-93
2023/07/29 08:34:27;;;;;;;1.73;1.47;;;;;;;22.45;84.38;100684.13;4935451;29;20028;-92
2023/07/29 08:36:53;;;;;;;3.78;1.70;;;;;;;22.27;84.60;100664.44;4936255;29;20137;-93
2023/07/29 08:39:18;;;;;;;2.13;1.63;;;;;;;22.48;85.06;100690.84;4936052;29;20387;-94
2023/07/29 08:41:56;;;;;;;1.50;1.40;;;;;;;22.55;85.44;100691.03;4936173;29;20024;-93
2023/07/29 08:44:25;;;;;;;1.90;1.70;;;;;;;22.49;84.93;100655.00;4936242;29;20067;-93
2023/07/29 08:46:55;;;;;;;1.77;1.52;;;;;;;22.48;82.24;100650.69;4935737;29;20484;-92
2023/07/29 08:49:23;;;;;;;2.33;1.60;;;;;;;22.56;82.83;100664.56;4936378;29;20029;-93
2023/07/29 08:51:49;;;;;;;2.72;1.70;;;;;;;22.52;83.06;100680.84;4934627;29;20034;-93
2023/07/29 08:54:14;;;;;;;1.85;1.50;;;;;;;22.48;84.74;100675.25;4936351;29;20072;-92
2023/07/29 08:56:45;;;;;;;2.93;1.53;;;;;;;22.76;86.31;100677.25;4935229;29;20031;-92
2023/07/29 08:59:13;;;;;;;2.90;1.50;;;;;;;22.99;79.94;100649.44;4936270;29;20103;-92
2023/07/29 09:01:39;;;;;;;1.77;1.45;;;;;;;23.32;79.20;100650.34;4937028;29;20671;-93
2023/07/29 09:04:04;;;;;;;2.60;1.70;;;;;;;23.80;75.68;100658.59;4935900;29;20030;-92
2023/07/29 09:06:31;;;;;;;1.98;1.75;;;;;;;24.17;74.94;100674.78;4934521;29;20506;-93
2023/07/29 09:08:58;;;;;;;1.60;1.50;;;;;;;24.29;73.70;100671.94;4935045;29;20019;-93
2023/07/29 09:11:23;;;;;;;1.40;1.30;;;;;;;24.19;71.64;100670.53;4935365;29;20276;-92
2023/07/29 09:13:48;;;;;;;3.40;1.63;;;;;;;24.30;71.54;100659.84;4936339;29;20506;-93
2023/07/29 09:16:14;;;;;;;1.57;1.40;;;;;;;24.65;71.44;100663.75;4939303;29;20027;-94
2023/07/29 09:18:40;;;;;;;3.50;1.60;;;;;;;24.83;68.81;100647.72;4936130;29;20510;-92
2023/07/29 09:21:05;;;;;;;2.40;1.70;;;;;;;25.16;69.06;100665.59;4934610;28;20058;-93
2023/07/29 09:23:42;;;;;;;1.60;1.50;;;;;;;24.99;71.42;100649.59;4935478;29;20040;-94
2023/07/29 09:26:07;;;;;;;1.20;1.10;;;;;;;25.03;71.94;100654.00;4935289;29;20032;-93
2023/07/29 09:28:38;;;;;;;1.40;1.27;;;;;;;24.79;70.24;100635.88;4936346;29;20295;-93
2023/07/29 09:31:03;;;;;;;3.00;1.45;;;;;;;24.31;69.20;100647.72;4937373;29;20038;-93
2023/07/29 09:33:36;;;;;;;1.70;1.60;;;;;;;24.14;73.07;100640.72;4939773;29;20035;-94
2023/07/29 09:36:08;;;;;;;1.90;1.70;;;;;;;24.03;72.53;100642.38;4939110;29;20023;-93
2023/07/29 09:39:29;;;;;;;1.88;1.58;;;;;;;24.53;75.39;100672.88;4954878;29;20023;-93
2023/07/29 09:41:55;;;;;;;1.38;1.27;;;;;;;24.76;71.48;100664.78;4937135;29;20393;-93
2023/07/29 09:44:20;;;;;;;4.17;1.33;;;;;;;24.87;68.79;100654.03;4954651;29;20019;-92
2023/07/29 09:46:47;;;;;;;1.65;1.55;;;;;;;25.29;67.75;100654.47;4943048;29;20039;-93
2023/07/29 09:49:12;;;;;;;2.27;1.43;;;;;;;25.54;66.85;100666.72;4935835;29;20032;-94
2023/07/29 09:51:39;;;;;;;3.00;1.60;;;;;;;25.18;66.28;100679.75;4935253;29;20354;-93
2023/07/29 09:54:04;;;;;;;2.83;1.58;;;;;;;24.99;66.25;100664.06;4936225;29;20024;-94
2023/07/29 09:56:30;;;;;;;3.07;1.60;;;;;;;24.88;66.80;100671.28;4936131;29;20054;-93
2023/07/29 09:58:57;;;;;;;2.72;1.50;;;;;;;24.87;66.68;100675.19;4936860;29;20063;-94
2023/07/29 10:01:23;;;;;;;1.80;1.70;;;;;;;24.82;67.56;100676.28;4936453;29;20035;-94
2023/07/29 10:03:49;;;;;;;4.27;1.70;;;;;;;24.56;69.06;100682.34;4936847;29;20030;-94
2023/07/29 10:06:15;;;;;;;3.70;1.70;;;;;;;24.23;72.01;100686.25;4935775;29;20046;-93
2023/07/29 10:08:42;;;;;;;2.10;1.60;;;;;;;23.92;74.71;100672.19;4936279;29;20063;-93
2023/07/29 10:11:09;;;;;;;4.18;1.75;;;;;;;23.87;76.13;100680.69;4936665;29;20020;-94
2023/07/29 10:13:38;;;;;;;2.03;1.70;;;;;;;24.08;75.18;100672.22;4937636;29;20032;-93
2023/07/29 10:16:04;;;;;;;2.10;1.67;;;;;;;24.33;75.29;100672.81;4936821;29;20443;-94
2023/07/29 10:18:31;;;;;;;2.63;1.67;;;;;;;24.90;71.96;100667.03;4937327;29;20059;-93
2023/07/29 10:20:58;;;;;;;2.40;1.97;;;;;;;25.24;69.07;100666.53;4941067;29;20284;-93
2023/07/29 10:23:25;;;;;;;2.67;1.58;;;;;;;25.37;68.09;100654.25;4939037;29;20480;-93
2023/07/29 10:25:59;;;;;;;1.83;1.73;;;;;;;25.51;66.86;100656.47;4941572;29;20027;-93
2023/07/29 10:28:28;;;;;;;4.05;1.65;;;;;;;26.00;65.99;100667.88;4937275;29;20032;-93
2023/07/29 10:30:54;;;;;;;1.77;1.67;;;;;;;26.67;62.88;100677.50;4937408;29;20028;-93
2023/07/29 10:33:19;;;;;;;2.25;1.85;;;;;;;26.96;60.93;100664.16;4937850;29;20110;-94
2023/07/29 10:35:46;;;;;;;2.00;1.90;;;;;;;27.16;60.37;100673.03;4938113;29;20082;-94
2023/07/29 10:38:12;;;;;;;1.67;1.58;;;;;;;27.40;56.85;100656.38;4940071;29;20035;-93
2023/07/29 10:40:52;;;;;;;2.38;1.98;;;;;;;27.49;61.31;100656.91;4945393;29;20055;-93
2023/07/29 10:43:33;;;;;;;2.17;2.00;;;;;;;27.58;60.31;100651.09;4938878;29;20028;-93
2023/07/29 10:46:20;;;;;;;2.10;1.90;;;;;;;27.40;55.85;100656.38;4938828;29;20036;-94
2023/07/29 10:48:54;;;;;;;3.38;2.08;;;;;;;27.30;56.54;100638.59;4940292;29;20035;-94
2023/07/29 10:51:29;;;;;;;2.58;1.83;;;;;;;27.17;56.91;100638.09;4940858;29;20071;-92
2023/07/29 10:54:11;;;;;;;2.35;1.77;;;;;;;27.30;58.56;100647.66;4939880;29;20380;-94
2023/07/29 10:56:40;;;;;;;2.30;1.83;;;;;;;26.69;57.50;100644.94;4945416;29;20091;-93
2023/07/29 10:59:11;;;;;;;3.53;1.85;;;;;;;26.12;58.67;100642.22;4954151;29;20095;-93
2023/07/29 11:01:39;;;;;;;1.92;1.83;;;;;;;25.65;61.21;100633.19;4941506;29;20036;-95
2023/07/29 11:04:20;;;;;;;1.87;1.67;;;;;;;25.71;62.67;100642.72;4952669;29;20028;-94
2023/07/29 11:07:07;;;;;;;2.97;1.97;;;;;;;25.92;63.33;100639.53;4943161;29;20314;-95
2023/07/29 11:09:49;;;;;;;2.38;1.90;;;;;;;26.00;61.31;100640.41;4937483;28;20036;-95
2023/07/29 11:12:47;;;;;;;1.85;1.70;;;;;;;25.86;62.00;100646.47;4938804;29;20051;-94
2023/07/29 11:15:23;;;;;;;2.17;1.65;;;;;;;25.48;61.78;100654.47;4938247;28;20038;-94
2023/07/29 11:17:56;;;;;;;3.28;1.85;;;;;;;25.18;63.66;100643.28;4940906;29;20024;-93